sensor_id;sensor_type;location;lat;lon;timestamp;P1;durP1;ratioP1;P2;durP2;ratioP2
79243;SDS011;68672;42.676;23.356;2023-08-24T00:02:09;11.02;;;8.73;;
79243;SDS011;68672;42.676;23.356;2023-08-24T00:04:35;10.63;;;8.18;;
79243;SDS011;68672;42.676;23.356;2023-08-24T00:07:01;11.10;;;7.50;;
79243;SDS011;68672;42.676;23.356;2023-08-24T00:09:26;12.90;;;8.50;;
79243;SDS011;68672;42.676;23.356;2023-08-24T00:11:52;12.75;;;8.63;;
79243;SDS011;68672;42.676;23.356;2023-08-24T00:14:18;11.48;;;7.90;;
79243;SDS011;68672;42.676;23.356;2023-08-24T00:16:43;13.50;;;8.80;;
79243;SDS011;68672;42.676;23.356;2023-08-24T00:19:09;10.60;;;8.32;;
79243;SDS011;68672;42.676;23.356;2023-08-24T00:21:34;9.63;;;7.25;;
79243;SDS011;68672;42.676;23.356;2023-08-24T00:24:02;10.45;;;8.02;;
79243;SDS011;68672;42.676;23.356;2023-08-24T00:26:28;10.82;;;8.30;;
79243;SDS011;68672;42.676;23.356;2023-08-24T00:28:56;10.63;;;8.45;;
79243;SDS011;68672;42.676;23.356;2023-08-24T00:31:22;11.35;;;8.73;;
79243;SDS011;68672;42.676;23.356;2023-08-24T00:33:47;11.85;;;8.25;;
79243;SDS011;68672;42.676;23.356;2023-08-24T00:36:18;10.40;;;7.88;;
79243;SDS011;68672;42.676;23.356;2023-08-24T00:38:50;11.68;;;8.07;;
79243;SDS011;68672;42.676;23.356;2023-08-24T00:41:16;10.85;;;8.75;;
79243;SDS011;68672;42.676;23.356;2023-08-24T00:43:42;9.93;;;8.60;;
79243;SDS011;68672;42.676;23.356;2023-08-24T00:46:08;13.73;;;9.38;;
79243;SDS011;68672;42.676;23.356;2023-08-24T00:48:33;10.63;;;8.48;;
79243;SDS011;68672;42.676;23.356;2023-08-24T00:50:59;12.85;;;8.23;;
79243;SDS011;68672;42.676;23.356;2023-08-24T00:53:26;10.48;;;8.23;;
79243;SDS011;68672;42.676;23.356;2023-08-24T00:55:56;12.95;;;8.30;;
79243;SDS011;68672;42.676;23.356;2023-08-24T00:58:21;9.15;;;7.25;;
79243;SDS011;68672;42.676;23.356;2023-08-24T01:00:52;9.95;;;7.70;;
79243;SDS011;68672;42.676;23.356;2023-08-24T01:03:18;12.25;;;8.40;;
79243;SDS011;68672;42.676;23.356;2023-08-24T01:05:48;11.65;;;7.88;;
79243;SDS011;68672;42.676;23.356;2023-08-24T01:08:13;9.75;;;7.90;;
79243;SDS011;68672;42.676;23.356;2023-08-24T01:10:40;9.52;;;8.02;;
79243;SDS011;68672;42.676;23.356;2023-08-24T01:16:24;16.08;;;8.43;;
79243;SDS011;68672;42.676;23.356;2023-08-24T01:18:54;10.52;;;8.52;;
79243;SDS011;68672;42.676;23.356;2023-08-24T01:21:22;13.32;;;8.63;;
79243;SDS011;68672;42.676;23.356;2023-08-24T01:23:54;13.43;;;9.07;;
79243;SDS011;68672;42.676;23.356;2023-08-24T01:26:22;11.02;;;9.27;;
79243;SDS011;68672;42.676;23.356;2023-08-24T01:28:48;9.20;;;7.93;;
79243;SDS011;68672;42.676;23.356;2023-08-24T01:31:15;11.35;;;8.25;;
79243;SDS011;68672;42.676;23.356;2023-08-24T01:33:44;14.80;;;8.93;;
79243;SDS011;68672;42.676;23.356;2023-08-24T01:36:11;12.05;;;9.27;;
79243;SDS011;68672;42.676;23.356;2023-08-24T01:38:40;10.02;;;8.07;;
79243;SDS011;68672;42.676;23.356;2023-08-24T01:41:39;10.48;;;7.78;;
79243;SDS011;68672;42.676;23.356;2023-08-24T01:44:03;10.52;;;8.15;;
79243;SDS011;68672;42.676;23.356;2023-08-24T01:46:31;12.25;;;8.90;;
79243;SDS011;68672;42.676;23.356;2023-08-24T01:48:59;11.52;;;8.25;;
79243;SDS011;68672;42.676;23.356;2023-08-24T01:51:25;11.00;;;8.50;;
79243;SDS011;68672;42.676;23.356;2023-08-24T01:53:51;11.05;;;7.90;;
79243;SDS011;68672;42.676;23.356;2023-08-24T01:56:22;13.80;;;8.75;;
79243;SDS011;68672;42.676;23.356;2023-08-24T01:58:47;11.05;;;8.60;;
79243;SDS011;68672;42.676;23.356;2023-08-24T02:01:13;10.07;;;8.95;;
79243;SDS011;68672;42.676;23.356;2023-08-24T02:03:38;11.98;;;8.70;;
79243;SDS011;68672;42.676;23.356;2023-08-24T02:06:10;13.23;;;8.35;;
79243;SDS011;68672;42.676;23.356;2023-08-24T02:08:35;10.65;;;7.88;;
79243;SDS011;68672;42.676;23.356;2023-08-24T02:11:01;12.25;;;8.52;;
79243;SDS011;68672;42.676;23.356;2023-08-24T02:13:26;12.95;;;9.52;;
79243;SDS011;68672;42.676;23.356;2023-08-24T02:16:00;11.65;;;9.40;;
79243;SDS011;68672;42.676;23.356;2023-08-24T02:18:29;10.90;;;7.82;;
79243;SDS011;68672;42.676;23.356;2023-08-24T02:20:54;10.05;;;8.48;;
79243;SDS011;68672;42.676;23.356;2023-08-24T02:23:20;9.95;;;7.65;;
79243;SDS011;68672;42.676;23.356;2023-08-24T02:25:45;11.65;;;8.57;;
79243;SDS011;68672;42.676;23.356;2023-08-24T02:28:12;11.10;;;8.25;;
79243;SDS011;68672;42.676;23.356;2023-08-24T02:30:38;10.15;;;8.05;;
79243;SDS011;68672;42.676;23.356;2023-08-24T02:33:04;12.45;;;9.20;;
79243;SDS011;68672;42.676;23.356;2023-08-24T02:35:32;10.60;;;8.32;;
79243;SDS011;68672;42.676;23.356;2023-08-24T02:37:58;11.93;;;9.02;;
79243;SDS011;68672;42.676;23.356;2023-08-24T02:40:23;9.98;;;8.40;;
79243;SDS011;68672;42.676;23.356;2023-08-24T02:42:49;12.73;;;8.30;;
79243;SDS011;68672;42.676;23.356;2023-08-24T02:45:14;11.75;;;8.48;;
79243;SDS011;68672;42.676;23.356;2023-08-24T02:47:42;11.65;;;8.50;;
79243;SDS011;68672;42.676;23.356;2023-08-24T02:50:08;12.63;;;8.40;;
79243;SDS011;68672;42.676;23.356;2023-08-24T02:52:36;11.75;;;8.18;;
79243;SDS011;68672;42.676;23.356;2023-08-24T02:55:02;11.93;;;8.75;;
79243;SDS011;68672;42.676;23.356;2023-08-24T02:57:28;14.15;;;9.30;;
79243;SDS011;68672;42.676;23.356;2023-08-24T02:59:54;11.73;;;8.68;;
79243;SDS011;68672;42.676;23.356;2023-08-24T03:02:19;11.27;;;9.23;;
79243;SDS011;68672;42.676;23.356;2023-08-24T03:04:48;11.10;;;9.18;;
79243;SDS011;68672;42.676;23.356;2023-08-24T03:07:13;14.30;;;8.25;;
79243;SDS011;68672;42.676;23.356;2023-08-24T03:09:39;11.73;;;8.05;;
79243;SDS011;68672;42.676;23.356;2023-08-24T03:12:04;9.63;;;8.20;;
79243;SDS011;68672;42.676;23.356;2023-08-24T03:14:30;12.02;;;8.68;;
79243;SDS011;68672;42.676;23.356;2023-08-24T03:16:55;12.40;;;8.27;;
79243;SDS011;68672;42.676;23.356;2023-08-24T03:19:21;12.32;;;8.40;;
79243;SDS011;68672;42.676;23.356;2023-08-24T03:21:46;12.02;;;8.80;;
79243;SDS011;68672;42.676;23.356;2023-08-24T03:24:12;11.93;;;8.88;;
79243;SDS011;68672;42.676;23.356;2023-08-24T03:26:37;11.65;;;8.60;;
79243;SDS011;68672;42.676;23.356;2023-08-24T03:29:03;10.95;;;8.43;;
79243;SDS011;68672;42.676;23.356;2023-08-24T03:31:28;12.27;;;8.25;;
79243;SDS011;68672;42.676;23.356;2023-08-24T03:33:54;12.48;;;8.88;;
79243;SDS011;68672;42.676;23.356;2023-08-24T03:36:19;9.48;;;7.95;;
79243;SDS011;68672;42.676;23.356;2023-08-24T03:38:44;12.88;;;8.45;;
79243;SDS011;68672;42.676;23.356;2023-08-24T03:41:10;9.75;;;7.50;;
79243;SDS011;68672;42.676;23.356;2023-08-24T03:43:36;11.00;;;8.90;;
79243;SDS011;68672;42.676;23.356;2023-08-24T03:46:02;10.57;;;8.00;;
79243;SDS011;68672;42.676;23.356;2023-08-24T03:48:32;13.40;;;8.85;;
79243;SDS011;68672;42.676;23.356;2023-08-24T03:50:57;10.65;;;7.85;;
79243;SDS011;68672;42.676;23.356;2023-08-24T03:53:23;12.77;;;8.70;;
79243;SDS011;68672;42.676;23.356;2023-08-24T03:55:50;12.75;;;9.38;;
79243;SDS011;68672;42.676;23.356;2023-08-24T03:58:16;11.68;;;9.05;;
79243;SDS011;68672;42.676;23.356;2023-08-24T04:00:45;14.48;;;9.15;;
79243;SDS011;68672;42.676;23.356;2023-08-24T04:03:11;12.32;;;8.75;;
79243;SDS011;68672;42.676;23.356;2023-08-24T04:05:37;12.98;;;9.27;;
79243;SDS011;68672;42.676;23.356;2023-08-24T04:08:03;14.15;;;9.70;;
79243;SDS011;68672;42.676;23.356;2023-08-24T04:10:29;12.13;;;9.02;;
79243;SDS011;68672;42.676;23.356;2023-08-24T04:12:55;13.30;;;9.75;;
79243;SDS011;68672;42.676;23.356;2023-08-24T04:15:20;13.50;;;9.10;;
79243;SDS011;68672;42.676;23.356;2023-08-24T04:17:47;11.27;;;9.05;;
79243;SDS011;68672;42.676;23.356;2023-08-24T04:20:19;13.93;;;9.68;;
79243;SDS011;68672;42.676;23.356;2023-08-24T04:22:45;11.98;;;9.68;;
79243;SDS011;68672;42.676;23.356;2023-08-24T04:25:10;12.23;;;9.35;;
79243;SDS011;68672;42.676;23.356;2023-08-24T04:27:36;10.68;;;9.32;;
79243;SDS011;68672;42.676;23.356;2023-08-24T04:30:08;14.32;;;9.40;;
79243;SDS011;68672;42.676;23.356;2023-08-24T04:32:36;12.05;;;9.38;;
79243;SDS011;68672;42.676;23.356;2023-08-24T04:35:02;11.70;;;9.23;;
79243;SDS011;68672;42.676;23.356;2023-08-24T04:37:28;13.98;;;9.43;;
79243;SDS011;68672;42.676;23.356;2023-08-24T04:39:56;14.75;;;8.77;;
79243;SDS011;68672;42.676;23.356;2023-08-24T04:42:21;13.50;;;9.38;;
79243;SDS011;68672;42.676;23.356;2023-08-24T04:44:47;16.48;;;9.50;;
79243;SDS011;68672;42.676;23.356;2023-08-24T04:47:16;13.98;;;9.05;;
79243;SDS011;68672;42.676;23.356;2023-08-24T04:49:41;10.48;;;8.80;;
79243;SDS011;68672;42.676;23.356;2023-08-24T04:52:06;16.80;;;9.93;;
79243;SDS011;68672;42.676;23.356;2023-08-24T04:54:32;12.90;;;9.27;;
79243;SDS011;68672;42.676;23.356;2023-08-24T04:56:58;14.60;;;9.85;;
79243;SDS011;68672;42.676;23.356;2023-08-24T04:59:23;12.13;;;8.23;;
79243;SDS011;68672;42.676;23.356;2023-08-24T05:01:49;12.13;;;8.13;;
79243;SDS011;68672;42.676;23.356;2023-08-24T05:04:14;12.20;;;9.00;;
79243;SDS011;68672;42.676;23.356;2023-08-24T05:06:43;12.55;;;8.85;;
79243;SDS011;68672;42.676;23.356;2023-08-24T05:09:11;13.57;;;9.43;;
79243;SDS011;68672;42.676;23.356;2023-08-24T05:11:36;9.88;;;8.45;;
79243;SDS011;68672;42.676;23.356;2023-08-24T05:14:02;11.90;;;9.10;;
79243;SDS011;68672;42.676;23.356;2023-08-24T05:16:27;14.60;;;9.18;;
79243;SDS011;68672;42.676;23.356;2023-08-24T05:18:55;13.57;;;9.18;;
79243;SDS011;68672;42.676;23.356;2023-08-24T05:21:21;11.30;;;9.75;;
79243;SDS011;68672;42.676;23.356;2023-08-24T05:23:46;14.85;;;8.90;;
79243;SDS011;68672;42.676;23.356;2023-08-24T05:26:12;14.48;;;9.43;;
79243;SDS011;68672;42.676;23.356;2023-08-24T05:28:37;10.85;;;8.65;;
79243;SDS011;68672;42.676;23.356;2023-08-24T05:31:03;11.98;;;9.68;;
79243;SDS011;68672;42.676;23.356;2023-08-24T05:33:28;14.07;;;8.65;;
79243;SDS011;68672;42.676;23.356;2023-08-24T05:35:56;13.25;;;9.73;;
79243;SDS011;68672;42.676;23.356;2023-08-24T05:38:21;11.52;;;8.40;;
79243;SDS011;68672;42.676;23.356;2023-08-24T05:40:47;14.00;;;8.95;;
79243;SDS011;68672;42.676;23.356;2023-08-24T05:43:13;12.77;;;9.10;;
79243;SDS011;68672;42.676;23.356;2023-08-24T05:45:42;15.90;;;10.25;;
79243;SDS011;68672;42.676;23.356;2023-08-24T05:48:11;13.43;;;10.05;;
79243;SDS011;68672;42.676;23.356;2023-08-24T05:50:37;15.45;;;10.48;;
79243;SDS011;68672;42.676;23.356;2023-08-24T05:53:07;14.68;;;9.98;;
79243;SDS011;68672;42.676;23.356;2023-08-24T05:55:32;17.05;;;10.57;;
79243;SDS011;68672;42.676;23.356;2023-08-24T05:57:58;12.85;;;9.70;;
79243;SDS011;68672;42.676;23.356;2023-08-24T06:00:23;12.90;;;10.25;;
79243;SDS011;68672;42.676;23.356;2023-08-24T06:02:49;15.60;;;10.55;;
79243;SDS011;68672;42.676;23.356;2023-08-24T06:05:14;15.02;;;10.60;;
79243;SDS011;68672;42.676;23.356;2023-08-24T06:07:42;15.25;;;11.10;;
79243;SDS011;68672;42.676;23.356;2023-08-24T06:10:08;15.68;;;11.02;;
79243;SDS011;68672;42.676;23.356;2023-08-24T06:12:34;15.18;;;10.77;;
79243;SDS011;68672;42.676;23.356;2023-08-24T06:15:02;15.48;;;11.55;;
79243;SDS011;68672;42.676;23.356;2023-08-24T06:17:29;15.50;;;10.25;;
79243;SDS011;68672;42.676;23.356;2023-08-24T06:19:55;13.02;;;10.00;;
79243;SDS011;68672;42.676;23.356;2023-08-24T06:22:20;15.48;;;10.10;;
79243;SDS011;68672;42.676;23.356;2023-08-24T06:24:46;14.30;;;11.35;;
79243;SDS011;68672;42.676;23.356;2023-08-24T06:27:11;13.57;;;11.30;;
79243;SDS011;68672;42.676;23.356;2023-08-24T06:29:37;17.40;;;11.25;;
79243;SDS011;68672;42.676;23.356;2023-08-24T06:32:02;14.93;;;12.02;;
79243;SDS011;68672;42.676;23.356;2023-08-24T06:34:28;15.85;;;11.38;;
79243;SDS011;68672;42.676;23.356;2023-08-24T06:36:53;13.38;;;10.70;;
79243;SDS011;68672;42.676;23.356;2023-08-24T06:39:19;18.30;;;11.27;;
79243;SDS011;68672;42.676;23.356;2023-08-24T06:41:44;18.38;;;12.23;;
79243;SDS011;68672;42.676;23.356;2023-08-24T06:44:10;16.67;;;11.18;;
79243;SDS011;68672;42.676;23.356;2023-08-24T06:46:35;15.68;;;11.27;;
79243;SDS011;68672;42.676;23.356;2023-08-24T06:49:07;17.08;;;10.80;;
79243;SDS011;68672;42.676;23.356;2023-08-24T06:51:32;17.65;;;11.25;;
79243;SDS011;68672;42.676;23.356;2023-08-24T06:53:58;15.80;;;10.98;;
79243;SDS011;68672;42.676;23.356;2023-08-24T06:56:23;11.98;;;9.93;;
79243;SDS011;68672;42.676;23.356;2023-08-24T06:58:49;13.43;;;9.93;;
79243;SDS011;68672;42.676;23.356;2023-08-24T07:01:14;14.30;;;10.43;;
79243;SDS011;68672;42.676;23.356;2023-08-24T07:03:41;16.95;;;11.00;;
79243;SDS011;68672;42.676;23.356;2023-08-24T07:06:06;13.88;;;10.15;;
79243;SDS011;68672;42.676;23.356;2023-08-24T07:08:37;12.88;;;10.90;;
79243;SDS011;68672;42.676;23.356;2023-08-24T07:11:02;13.75;;;10.40;;
79243;SDS011;68672;42.676;23.356;2023-08-24T07:13:28;15.55;;;11.30;;
79243;SDS011;68672;42.676;23.356;2023-08-24T07:15:53;14.25;;;10.27;;
79243;SDS011;68672;42.676;23.356;2023-08-24T07:18:23;12.93;;;10.07;;
79243;SDS011;68672;42.676;23.356;2023-08-24T07:20:49;17.05;;;10.00;;
79243;SDS011;68672;42.676;23.356;2023-08-24T07:23:14;12.80;;;10.43;;
79243;SDS011;68672;42.676;23.356;2023-08-24T07:25:40;12.50;;;10.30;;
79243;SDS011;68672;42.676;23.356;2023-08-24T07:28:06;12.13;;;9.70;;
79243;SDS011;68672;42.676;23.356;2023-08-24T07:30:35;14.40;;;10.05;;
79243;SDS011;68672;42.676;23.356;2023-08-24T07:33:01;13.07;;;10.52;;
79243;SDS011;68672;42.676;23.356;2023-08-24T07:35:28;12.23;;;9.50;;
79243;SDS011;68672;42.676;23.356;2023-08-24T07:38:00;16.38;;;9.63;;
79243;SDS011;68672;42.676;23.356;2023-08-24T07:40:29;13.23;;;9.32;;
79243;SDS011;68672;42.676;23.356;2023-08-24T07:42:55;15.68;;;10.38;;
79243;SDS011;68672;42.676;23.356;2023-08-24T07:45:21;11.80;;;9.93;;
79243;SDS011;68672;42.676;23.356;2023-08-24T07:47:48;11.40;;;9.43;;
79243;SDS011;68672;42.676;23.356;2023-08-24T07:50:14;12.52;;;9.63;;
79243;SDS011;68672;42.676;23.356;2023-08-24T07:52:42;10.40;;;9.00;;
79243;SDS011;68672;42.676;23.356;2023-08-24T07:55:08;10.20;;;8.98;;
79243;SDS011;68672;42.676;23.356;2023-08-24T07:57:34;13.88;;;9.57;;
79243;SDS011;68672;42.676;23.356;2023-08-24T08:00:03;10.98;;;8.55;;
79243;SDS011;68672;42.676;23.356;2023-08-24T08:02:29;12.05;;;8.77;;
79243;SDS011;68672;42.676;23.356;2023-08-24T08:04:57;14.20;;;9.50;;
79243;SDS011;68672;42.676;23.356;2023-08-24T08:07:23;14.68;;;11.05;;
79243;SDS011;68672;42.676;23.356;2023-08-24T08:09:49;12.38;;;10.07;;
79243;SDS011;68672;42.676;23.356;2023-08-24T08:12:18;12.20;;;9.63;;
79243;SDS011;68672;42.676;23.356;2023-08-24T08:14:44;11.65;;;10.05;;
79243;SDS011;68672;42.676;23.356;2023-08-24T08:17:11;12.57;;;10.15;;
79243;SDS011;68672;42.676;23.356;2023-08-24T08:19:37;12.77;;;9.52;;
79243;SDS011;68672;42.676;23.356;2023-08-24T08:22:06;10.82;;;9.68;;
79243;SDS011;68672;42.676;23.356;2023-08-24T08:24:31;10.95;;;8.88;;
79243;SDS011;68672;42.676;23.356;2023-08-24T08:26:56;11.02;;;9.68;;
79243;SDS011;68672;42.676;23.356;2023-08-24T08:29:22;17.90;;;10.05;;
79243;SDS011;68672;42.676;23.356;2023-08-24T08:31:47;11.57;;;9.23;;
79243;SDS011;68672;42.676;23.356;2023-08-24T08:34:13;10.98;;;8.13;;
79243;SDS011;68672;42.676;23.356;2023-08-24T08:36:41;10.77;;;8.70;;
79243;SDS011;68672;42.676;23.356;2023-08-24T08:39:07;13.10;;;8.82;;
79243;SDS011;68672;42.676;23.356;2023-08-24T08:41:33;10.98;;;8.90;;
79243;SDS011;68672;42.676;23.356;2023-08-24T08:44:06;14.15;;;9.30;;
79243;SDS011;68672;42.676;23.356;2023-08-24T08:46:32;11.50;;;9.43;;
79243;SDS011;68672;42.676;23.356;2023-08-24T08:48:59;11.13;;;9.30;;
79243;SDS011;68672;42.676;23.356;2023-08-24T08:51:26;10.55;;;8.75;;
79243;SDS011;68672;42.676;23.356;2023-08-24T08:53:52;13.27;;;9.52;;
79243;SDS011;68672;42.676;23.356;2023-08-24T08:56:18;10.65;;;9.55;;
79243;SDS011;68672;42.676;23.356;2023-08-24T08:58:44;11.00;;;8.52;;
79243;SDS011;68672;42.676;23.356;2023-08-24T09:01:28;12.77;;;9.50;;
79243;SDS011;68672;42.676;23.356;2023-08-24T09:03:53;11.82;;;9.00;;
79243;SDS011;68672;42.676;23.356;2023-08-24T09:06:20;12.57;;;9.32;;
79243;SDS011;68672;42.676;23.356;2023-08-24T09:08:46;10.43;;;8.48;;
79243;SDS011;68672;42.676;23.356;2023-08-24T09:11:14;11.18;;;9.13;;
79243;SDS011;68672;42.676;23.356;2023-08-24T09:13:40;11.40;;;8.85;;
79243;SDS011;68672;42.676;23.356;2023-08-24T09:16:06;11.00;;;9.40;;
79243;SDS011;68672;42.676;23.356;2023-08-24T09:18:38;11.13;;;9.90;;
79243;SDS011;68672;42.676;23.356;2023-08-24T09:21:11;11.07;;;9.38;;
79243;SDS011;68672;42.676;23.356;2023-08-24T09:23:38;11.10;;;8.68;;
79243;SDS011;68672;42.676;23.356;2023-08-24T09:26:10;12.20;;;9.45;;
79243;SDS011;68672;42.676;23.356;2023-08-24T09:28:35;11.80;;;9.38;;
79243;SDS011;68672;42.676;23.356;2023-08-24T09:31:01;13.13;;;10.43;;
79243;SDS011;68672;42.676;23.356;2023-08-24T09:33:28;11.10;;;9.43;;
79243;SDS011;68672;42.676;23.356;2023-08-24T09:35:54;12.57;;;10.02;;
79243;SDS011;68672;42.676;23.356;2023-08-24T09:38:26;11.20;;;9.10;;
79243;SDS011;68672;42.676;23.356;2023-08-24T09:40:54;9.77;;;8.35;;
79243;SDS011;68672;42.676;23.356;2023-08-24T09:43:21;11.50;;;9.32;;
79243;SDS011;68672;42.676;23.356;2023-08-24T09:45:51;11.00;;;8.70;;
79243;SDS011;68672;42.676;23.356;2023-08-24T09:48:18;11.77;;;9.27;;
79243;SDS011;68672;42.676;23.356;2023-08-24T09:50:44;10.63;;;9.43;;
79243;SDS011;68672;42.676;23.356;2023-08-24T09:53:14;11.25;;;9.57;;
79243;SDS011;68672;42.676;23.356;2023-08-24T09:58:27;12.30;;;9.48;;
79243;SDS011;68672;42.676;23.356;2023-08-24T10:00:56;10.43;;;9.32;;
79243;SDS011;68672;42.676;23.356;2023-08-24T10:03:26;9.98;;;8.80;;
79243;SDS011;68672;42.676;23.356;2023-08-24T10:05:56;11.32;;;8.75;;
79243;SDS011;68672;42.676;23.356;2023-08-24T10:08:30;11.95;;;9.60;;
79243;SDS011;68672;42.676;23.356;2023-08-24T10:11:01;10.40;;;9.35;;
79243;SDS011;68672;42.676;23.356;2023-08-24T10:13:32;11.82;;;10.18;;
79243;SDS011;68672;42.676;23.356;2023-08-24T10:16:05;12.00;;;10.18;;
79243;SDS011;68672;42.676;23.356;2023-08-24T10:18:33;10.27;;;9.27;;
79243;SDS011;68672;42.676;23.356;2023-08-24T10:20:59;11.02;;;9.05;;
79243;SDS011;68672;42.676;23.356;2023-08-24T10:23:29;10.32;;;8.75;;
79243;SDS011;68672;42.676;23.356;2023-08-24T10:25:56;8.13;;;7.32;;
79243;SDS011;68672;42.676;23.356;2023-08-24T10:28:25;9.63;;;8.63;;
79243;SDS011;68672;42.676;23.356;2023-08-24T10:30:51;9.90;;;8.35;;
79243;SDS011;68672;42.676;23.356;2023-08-24T10:33:17;9.68;;;8.73;;
79243;SDS011;68672;42.676;23.356;2023-08-24T10:35:48;10.15;;;9.18;;
79243;SDS011;68672;42.676;23.356;2023-08-24T10:38:27;12.05;;;8.93;;
79243;SDS011;68672;42.676;23.356;2023-08-24T10:40:54;8.98;;;7.43;;
79243;SDS011;68672;42.676;23.356;2023-08-24T10:43:26;10.13;;;8.43;;
79243;SDS011;68672;42.676;23.356;2023-08-24T10:46:01;10.57;;;8.20;;
79243;SDS011;68672;42.676;23.356;2023-08-24T10:53:58;9.30;;;7.88;;
79243;SDS011;68672;42.676;23.356;2023-08-24T10:56:32;10.32;;;8.95;;
79243;SDS011;68672;42.676;23.356;2023-08-24T10:59:11;10.18;;;8.43;;
79243;SDS011;68672;42.676;23.356;2023-08-24T11:01:39;11.88;;;9.55;;
79243;SDS011;68672;42.676;23.356;2023-08-24T11:04:05;10.82;;;8.75;;
79243;SDS011;68672;42.676;23.356;2023-08-24T11:06:34;11.50;;;9.63;;
79243;SDS011;68672;42.676;23.356;2023-08-24T11:09:06;10.05;;;8.98;;
79243;SDS011;68672;42.676;23.356;2023-08-24T11:11:40;15.32;;;9.07;;
79243;SDS011;68672;42.676;23.356;2023-08-24T11:14:20;10.52;;;8.57;;
79243;SDS011;68672;42.676;23.356;2023-08-24T11:16:47;13.15;;;10.20;;
79243;SDS011;68672;42.676;23.356;2023-08-24T11:19:16;11.13;;;9.07;;
79243;SDS011;68672;42.676;23.356;2023-08-24T11:21:43;12.07;;;9.13;;
79243;SDS011;68672;42.676;23.356;2023-08-24T11:24:12;10.45;;;9.45;;
79243;SDS011;68672;42.676;23.356;2023-08-24T11:26:39;10.55;;;9.30;;
79243;SDS011;68672;42.676;23.356;2023-08-24T11:29:07;11.57;;;8.85;;
79243;SDS011;68672;42.676;23.356;2023-08-24T11:31:33;10.23;;;8.80;;
79243;SDS011;68672;42.676;23.356;2023-08-24T11:33:59;10.88;;;8.10;;
79243;SDS011;68672;42.676;23.356;2023-08-24T11:36:25;10.88;;;8.60;;
79243;SDS011;68672;42.676;23.356;2023-08-24T11:38:55;10.32;;;8.60;;
79243;SDS011;68672;42.676;23.356;2023-08-24T11:41:21;10.15;;;8.52;;
79243;SDS011;68672;42.676;23.356;2023-08-24T11:43:47;10.43;;;8.65;;
79243;SDS011;68672;42.676;23.356;2023-08-24T11:46:18;10.98;;;9.02;;
79243;SDS011;68672;42.676;23.356;2023-08-24T11:48:44;10.38;;;9.27;;
79243;SDS011;68672;42.676;23.356;2023-08-24T11:51:11;10.60;;;9.35;;
79243;SDS011;68672;42.676;23.356;2023-08-24T11:53:40;11.63;;;9.90;;
79243;SDS011;68672;42.676;23.356;2023-08-24T11:56:10;12.13;;;8.98;;
79243;SDS011;68672;42.676;23.356;2023-08-24T11:58:42;9.90;;;8.52;;
79243;SDS011;68672;42.676;23.356;2023-08-24T12:01:12;10.20;;;8.88;;
79243;SDS011;68672;42.676;23.356;2023-08-24T12:03:38;10.35;;;9.05;;
79243;SDS011;68672;42.676;23.356;2023-08-24T12:06:13;12.77;;;9.48;;
79243;SDS011;68672;42.676;23.356;2023-08-24T12:08:40;10.35;;;9.15;;
79243;SDS011;68672;42.676;23.356;2023-08-24T12:11:10;9.98;;;8.07;;
79243;SDS011;68672;42.676;23.356;2023-08-24T12:13:49;11.15;;;8.25;;
79243;SDS011;68672;42.676;23.356;2023-08-24T12:16:16;9.93;;;8.90;;
79243;SDS011;68672;42.676;23.356;2023-08-24T12:18:46;13.75;;;8.65;;
79243;SDS011;68672;42.676;23.356;2023-08-24T12:21:13;11.40;;;8.93;;
79243;SDS011;68672;42.676;23.356;2023-08-24T12:23:39;8.15;;;7.22;;
79243;SDS011;68672;42.676;23.356;2023-08-24T12:26:04;10.65;;;8.43;;
79243;SDS011;68672;42.676;23.356;2023-08-24T12:28:32;8.68;;;7.28;;
79243;SDS011;68672;42.676;23.356;2023-08-24T12:30:58;10.27;;;8.10;;
79243;SDS011;68672;42.676;23.356;2023-08-24T12:33:30;8.82;;;7.78;;
79243;SDS011;68672;42.676;23.356;2023-08-24T12:35:57;10.68;;;8.10;;
79243;SDS011;68672;42.676;23.356;2023-08-24T12:38:24;9.48;;;7.38;;
79243;SDS011;68672;42.676;23.356;2023-08-24T12:43:21;9.82;;;7.85;;
79243;SDS011;68672;42.676;23.356;2023-08-24T12:45:47;9.65;;;8.65;;
79243;SDS011;68672;42.676;23.356;2023-08-24T12:48:12;9.93;;;7.90;;
79243;SDS011;68672;42.676;23.356;2023-08-24T12:50:38;8.48;;;7.25;;
79243;SDS011;68672;42.676;23.356;2023-08-24T12:53:04;9.10;;;7.40;;
79243;SDS011;68672;42.676;23.356;2023-08-24T12:55:31;10.05;;;7.55;;
79243;SDS011;68672;42.676;23.356;2023-08-24T12:57:58;13.73;;;8.15;;
79243;SDS011;68672;42.676;23.356;2023-08-24T13:00:24;9.07;;;7.57;;
79243;SDS011;68672;42.676;23.356;2023-08-24T13:02:49;9.07;;;8.02;;
79243;SDS011;68672;42.676;23.356;2023-08-24T13:05:15;10.85;;;9.00;;
79243;SDS011;68672;42.676;23.356;2023-08-24T13:07:41;8.40;;;6.95;;
79243;SDS011;68672;42.676;23.356;2023-08-24T13:10:06;9.40;;;7.80;;
79243;SDS011;68672;42.676;23.356;2023-08-24T13:12:32;12.95;;;8.23;;
79243;SDS011;68672;42.676;23.356;2023-08-24T13:14:59;9.18;;;6.95;;
79243;SDS011;68672;42.676;23.356;2023-08-24T13:17:24;9.45;;;7.43;;
79243;SDS011;68672;42.676;23.356;2023-08-24T13:19:52;10.82;;;8.15;;
79243;SDS011;68672;42.676;23.356;2023-08-24T13:22:20;10.57;;;7.53;;
79243;SDS011;68672;42.676;23.356;2023-08-24T13:24:46;10.95;;;7.65;;
79243;SDS011;68672;42.676;23.356;2023-08-24T13:27:11;11.25;;;8.20;;
79243;SDS011;68672;42.676;23.356;2023-08-24T13:29:37;9.93;;;8.25;;
79243;SDS011;68672;42.676;23.356;2023-08-24T13:32:06;12.23;;;7.47;;
79243;SDS011;68672;42.676;23.356;2023-08-24T13:34:31;10.20;;;8.93;;
79243;SDS011;68672;42.676;23.356;2023-08-24T13:36:57;10.90;;;7.82;;
79243;SDS011;68672;42.676;23.356;2023-08-24T13:39:23;11.93;;;8.30;;
79243;SDS011;68672;42.676;23.356;2023-08-24T13:41:50;11.48;;;8.63;;
79243;SDS011;68672;42.676;23.356;2023-08-24T13:44:15;10.00;;;8.55;;
79243;SDS011;68672;42.676;23.356;2023-08-24T13:46:41;8.45;;;7.53;;
79243;SDS011;68672;42.676;23.356;2023-08-24T13:49:06;10.35;;;8.30;;
79243;SDS011;68672;42.676;23.356;2023-08-24T13:51:33;8.73;;;7.68;;
79243;SDS011;68672;42.676;23.356;2023-08-24T13:54:14;11.05;;;8.07;;
79243;SDS011;68672;42.676;23.356;2023-08-24T13:56:44;10.82;;;8.52;;
79243;SDS011;68672;42.676;23.356;2023-08-24T13:59:10;9.13;;;7.93;;
79243;SDS011;68672;42.676;23.356;2023-08-24T14:01:35;10.23;;;7.93;;
79243;SDS011;68672;42.676;23.356;2023-08-24T14:04:01;10.18;;;8.02;;
79243;SDS011;68672;42.676;23.356;2023-08-24T14:08:56;8.98;;;7.88;;
79243;SDS011;68672;42.676;23.356;2023-08-24T14:11:22;10.77;;;8.93;;
79243;SDS011;68672;42.676;23.356;2023-08-24T14:13:48;12.50;;;9.40;;
79243;SDS011;68672;42.676;23.356;2023-08-24T14:16:13;11.57;;;9.23;;
79243;SDS011;68672;42.676;23.356;2023-08-24T14:18:42;10.93;;;8.88;;
79243;SDS011;68672;42.676;23.356;2023-08-24T14:21:08;12.50;;;9.60;;
79243;SDS011;68672;42.676;23.356;2023-08-24T14:23:35;9.77;;;8.10;;
79243;SDS011;68672;42.676;23.356;2023-08-24T14:26:00;11.30;;;8.68;;
79243;SDS011;68672;42.676;23.356;2023-08-24T14:28:26;11.18;;;9.10;;
79243;SDS011;68672;42.676;23.356;2023-08-24T14:31:16;11.30;;;8.90;;
79243;SDS011;68672;42.676;23.356;2023-08-24T14:33:42;12.73;;;8.82;;
79243;SDS011;68672;42.676;23.356;2023-08-24T14:36:07;10.18;;;8.95;;
79243;SDS011;68672;42.676;23.356;2023-08-24T14:38:34;11.52;;;9.07;;